sensor_id;sensor_type;location;lat;lon;timestamp;pressure;altitude;pressure_sealevel;temperature;humidity
55068;BME280;40965;52.368;9.712;2022-09-03T00:01:56;100946.91;;;14.32;57.90
55068;BME280;40965;52.368;9.712;2022-09-03T00:04:38;100940.81;;;14.29;57.88
55068;BME280;40965;52.368;9.712;2022-09-03T00:07:36;100941.00;;;14.21;58.47
55068;BME280;40965;52.368;9.712;2022-09-03T00:10:42;100929.66;;;14.17;58.61
55068;BME280;40965;52.368;9.712;2022-09-03T00:13:45;100924.47;;;14.13;58.63
55068;BME280;40965;52.368;9.712;2022-09-03T00:16:19;100926.28;;;14.09;58.84
55068;BME280;40965;52.368;9.712;2022-09-03T00:18:59;100927.22;;;14.08;58.86
55068;BME280;40965;52.368;9.712;2022-09-03T00:24:25;100923.69;;;14.07;58.99
55068;BME280;40965;52.368;9.712;2022-09-03T00:26:59;100922.88;;;14.05;59.36
55068;BME280;40965;52.368;9.712;2022-09-03T00:29:39;100916.75;;;14.03;59.04
55068;BME280;40965;52.368;9.712;2022-09-03T00:32:17;100913.31;;;14.00;58.97
55068;BME280;40965;52.368;9.712;2022-09-03T00:34:59;100919.50;;;13.97;59.58
55068;BME280;40965;52.368;9.712;2022-09-03T00:37:28;100922.13;;;13.97;59.45
55068;BME280;40965;52.368;9.712;2022-09-03T00:39:57;100914.31;;;13.94;59.63
55068;BME280;40965;52.368;9.712;2022-09-03T00:42:36;100917.00;;;13.91;60.01
55068;BME280;40965;52.368;9.712;2022-09-03T00:45:41;100916.06;;;13.92;60.34
55068;BME280;40965;52.368;9.712;2022-09-03T00:48:24;100914.31;;;13.94;59.93
55068;BME280;40965;52.368;9.712;2022-09-03T00:51:15;100920.44;;;13.93;60.01
55068;BME280;40965;52.368;9.712;2022-09-03T00:54:11;100916.94;;;13.94;59.74
55068;BME280;40965;52.368;9.712;2022-09-03T01:06:44;100914.44;;;13.86;59.80
55068;BME280;40965;52.368;9.712;2022-09-03T01:12:18;100908.31;;;13.86;59.77
55068;BME280;40965;52.368;9.712;2022-09-03T01:18:00;100909.13;;;13.88;59.52
55068;BME280;40965;52.368;9.712;2022-09-03T01:20:57;100907.47;;;13.84;59.56
55068;BME280;40965;52.368;9.712;2022-09-03T01:23:58;100910.06;;;13.85;59.78
55068;BME280;40965;52.368;9.712;2022-09-03T01:29:39;100907.44;;;13.85;59.86
55068;BME280;40965;52.368;9.712;2022-09-03T01:35:08;100905.63;;;13.89;59.60
55068;BME280;40965;52.368;9.712;2022-09-03T01:41:26;100916.41;;;13.73;59.62
55068;BME280;40965;52.368;9.712;2022-09-03T01:45:06;100919.16;;;13.69;60.05
55068;BME280;40965;52.368;9.712;2022-09-03T01:47:50;100912.22;;;13.63;59.96
55068;BME280;40965;52.368;9.712;2022-09-03T01:54:07;100914.91;;;13.60;60.29
55068;BME280;40965;52.368;9.712;2022-09-03T01:57:23;100909.69;;;13.57;60.38
55068;BME280;40965;52.368;9.712;2022-09-03T02:00:17;100923.78;;;13.53;60.19
55068;BME280;40965;52.368;9.712;2022-09-03T02:02:51;100911.59;;;13.49;60.70
55068;BME280;40965;52.368;9.712;2022-09-03T02:05:21;100915.03;;;13.52;60.67
55068;BME280;40965;52.368;9.712;2022-09-03T02:10:37;100923.75;;;13.56;60.14
55068;BME280;40965;52.368;9.712;2022-09-03T02:13:29;100922.91;;;13.54;60.42
55068;BME280;40965;52.368;9.712;2022-09-03T02:16:13;100922.88;;;13.55;60.28
55068;BME280;40965;52.368;9.712;2022-09-03T02:18:59;100922.06;;;13.52;60.68
55068;BME280;40965;52.368;9.712;2022-09-03T02:21:37;100912.47;;;13.48;60.35
55068;BME280;40965;52.368;9.712;2022-09-03T02:24:07;100919.56;;;13.43;60.56
55068;BME280;40965;52.368;9.712;2022-09-03T02:26:34;100920.53;;;13.38;60.53
55068;BME280;40965;52.368;9.712;2022-09-03T02:29:02;100918.84;;;13.33;61.01
55068;BME280;40965;52.368;9.712;2022-09-03T02:31:30;100917.94;;;13.34;61.11
55068;BME280;40965;52.368;9.712;2022-09-03T02:34:05;100911.88;;;13.30;61.23
55068;BME280;40965;52.368;9.712;2022-09-03T02:36:37;100913.69;;;13.25;61.38
55068;BME280;40965;52.368;9.712;2022-09-03T02:39:07;100904.06;;;13.24;61.14
55068;BME280;40965;52.368;9.712;2022-09-03T02:41:34;100904.84;;;13.31;61.26
55068;BME280;40965;52.368;9.712;2022-09-03T02:44:17;100906.53;;;13.33;60.96
55068;BME280;40965;52.368;9.712;2022-09-03T02:49:25;100912.69;;;13.32;61.42
55068;BME280;40965;52.368;9.712;2022-09-03T02:52:01;100914.53;;;13.29;61.17
55068;BME280;40965;52.368;9.712;2022-09-03T02:54:31;100908.44;;;13.25;61.16
55068;BME280;40965;52.368;9.712;2022-09-03T02:57:05;100914.63;;;13.22;61.57
55068;BME280;40965;52.368;9.712;2022-09-03T02:59:35;100921.63;;;13.23;61.54
55068;BME280;40965;52.368;9.712;2022-09-03T03:02:04;100910.22;;;13.23;61.31
55068;BME280;40965;52.368;9.712;2022-09-03T03:04:31;100917.31;;;13.19;61.60
55068;BME280;40965;52.368;9.712;2022-09-03T03:06:58;100911.13;;;13.20;61.33
55068;BME280;40965;52.368;9.712;2022-09-03T03:09:24;100914.66;;;13.21;61.88
55068;BME280;40965;52.368;9.712;2022-09-03T03:11:51;100915.53;;;13.20;62.10
55068;BME280;40965;52.368;9.712;2022-09-03T03:14:20;100914.59;;;13.24;61.67
55068;BME280;40965;52.368;9.712;2022-09-03T03:16:48;100911.13;;;13.20;61.65
55068;BME280;40965;52.368;9.712;2022-09-03T03:19:16;100907.69;;;13.17;61.68
55068;BME280;40965;52.368;9.712;2022-09-03T03:21:45;100908.63;;;13.14;61.91
55068;BME280;40965;52.368;9.712;2022-09-03T03:24:12;100910.38;;;13.12;61.88
55068;BME280;40965;52.368;9.712;2022-09-03T03:26:40;100910.41;;;13.11;62.12
55068;BME280;40965;52.368;9.712;2022-09-03T03:29:14;100906.94;;;13.08;62.01
55068;BME280;40965;52.368;9.712;2022-09-03T03:31:42;100907.88;;;13.04;62.56
55068;BME280;40965;52.368;9.712;2022-09-03T03:34:10;100909.69;;;13.02;62.40
55068;BME280;40965;52.368;9.712;2022-09-03T03:36:37;100907.09;;;12.98;62.55
55068;BME280;40965;52.368;9.712;2022-09-03T03:39:04;100914.06;;;13.00;62.45
55068;BME280;40965;52.368;9.712;2022-09-03T03:41:35;100902.59;;;13.06;62.79
55068;BME280;40965;52.368;9.712;2022-09-03T03:44:04;100903.47;;;13.06;62.64
55068;BME280;40965;52.368;9.712;2022-09-03T03:46:37;100908.63;;;13.13;62.32
55068;BME280;40965;52.368;9.712;2022-09-03T03:49:06;100904.28;;;13.12;62.26
55068;BME280;40965;52.368;9.712;2022-09-03T03:51:35;100910.31;;;13.15;61.78
55068;BME280;40965;52.368;9.712;2022-09-03T03:54:06;100915.69;;;13.09;62.11
55068;BME280;40965;52.368;9.712;2022-09-03T03:56:33;100910.47;;;13.06;62.41
55068;BME280;40965;52.368;9.712;2022-09-03T03:59:00;100910.53;;;13.03;62.62
55068;BME280;40965;52.368;9.712;2022-09-03T04:01:27;100907.03;;;13.02;62.55
55068;BME280;40965;52.368;9.712;2022-09-03T04:03:56;100903.66;;;12.94;62.94
55068;BME280;40965;52.368;9.712;2022-09-03T04:06:24;100898.47;;;12.88;62.73
55068;BME280;40965;52.368;9.712;2022-09-03T04:08:51;100906.41;;;12.85;63.18
55068;BME280;40965;52.368;9.712;2022-09-03T04:11:22;100909.09;;;12.82;62.97
55068;BME280;40965;52.368;9.712;2022-09-03T04:13:50;100903.03;;;12.77;63.70
55068;BME280;40965;52.368;9.712;2022-09-03T04:16:20;100896.91;;;12.74;63.10
55068;BME280;40965;52.368;9.712;2022-09-03T04:18:57;100910.94;;;12.73;63.33
55068;BME280;40965;52.368;9.712;2022-09-03T04:21:28;100909.22;;;12.72;63.78
55068;BME280;40965;52.368;9.712;2022-09-03T04:23:57;100906.63;;;12.69;63.60
55068;BME280;40965;52.368;9.712;2022-09-03T04:26:29;100906.59;;;12.71;63.68
55068;BME280;40965;52.368;9.712;2022-09-03T04:28:59;100898.75;;;12.68;63.62
55068;BME280;40965;52.368;9.712;2022-09-03T04:31:33;100903.16;;;12.66;63.64
55068;BME280;40965;52.368;9.712;2022-09-03T04:34:05;100899.72;;;12.62;63.72
55068;BME280;40965;52.368;9.712;2022-09-03T04:36:33;100897.13;;;12.59;63.91
55068;BME280;40965;52.368;9.712;2022-09-03T04:39:06;100904.16;;;12.58;64.07
55068;BME280;40965;52.368;9.712;2022-09-03T04:41:35;100905.91;;;12.58;64.07
55068;BME280;40965;52.368;9.712;2022-09-03T04:44:02;100904.19;;;12.54;64.41
55068;BME280;40965;52.368;9.712;2022-09-03T04:46:29;100907.72;;;12.51;64.33
55068;BME280;40965;52.368;9.712;2022-09-03T04:49:06;100914.78;;;12.49;64.71
55068;BME280;40965;52.368;9.712;2022-09-03T04:51:36;100912.16;;;12.49;64.72
55068;BME280;40965;52.368;9.712;2022-09-03T04:54:04;100915.66;;;12.48;64.64
55068;BME280;40965;52.368;9.712;2022-09-03T04:56:39;100916.59;;;12.44;64.72
55068;BME280;40965;52.368;9.712;2022-09-03T04:59:07;100910.47;;;12.45;64.97
55068;BME280;40965;52.368;9.712;2022-09-03T05:01:37;100913.06;;;12.47;64.98
55068;BME280;40965;52.368;9.712;2022-09-03T05:04:06;100913.09;;;12.45;64.76
55068;BME280;40965;52.368;9.712;2022-09-03T05:06:35;100905.19;;;12.45;64.97
55068;BME280;40965;52.368;9.712;2022-09-03T05:09:04;100918.28;;;12.48;64.77
55068;BME280;40965;52.368;9.712;2022-09-03T05:11:31;100911.28;;;12.47;64.90
55068;BME280;40965;52.368;9.712;2022-09-03T05:13:59;100915.72;;;12.45;64.99
55068;BME280;40965;52.368;9.712;2022-09-03T05:16:43;100913.91;;;12.47;65.02
55068;BME280;40965;52.368;9.712;2022-09-03T05:19:13;100909.56;;;12.45;65.18
55068;BME280;40965;52.368;9.712;2022-09-03T05:21:40;100913.06;;;12.44;65.25
55068;BME280;40965;52.368;9.712;2022-09-03T05:24:15;100907.84;;;12.42;65.25
55068;BME280;40965;52.368;9.712;2022-09-03T05:26:46;100908.72;;;12.44;65.21
55068;BME280;40965;52.368;9.712;2022-09-03T05:29:19;100906.09;;;12.44;65.44
55068;BME280;40965;52.368;9.712;2022-09-03T05:31:48;100913.06;;;12.44;65.76
55068;BME280;40965;52.368;9.712;2022-09-03T05:34:14;100904.28;;;12.46;65.13
55068;BME280;40965;52.368;9.712;2022-09-03T05:36:41;100905.13;;;12.50;65.37
55068;BME280;40965;52.368;9.712;2022-09-03T05:39:08;100905.09;;;12.54;65.53
55068;BME280;40965;52.368;9.712;2022-09-03T05:41:38;100905.06;;;12.56;65.16
55068;BME280;40965;52.368;9.712;2022-09-03T05:44:05;100912.06;;;12.55;65.18
55068;BME280;40965;52.368;9.712;2022-09-03T05:46:35;100912.88;;;12.62;65.40
55068;BME280;40965;52.368;9.712;2022-09-03T05:49:05;100905.75;;;12.69;64.93
55068;BME280;40965;52.368;9.712;2022-09-03T05:51:33;100905.75;;;12.70;65.16
55068;BME280;40965;52.368;9.712;2022-09-03T05:54:03;100906.53;;;12.76;64.69
55068;BME280;40965;52.368;9.712;2022-09-03T05:56:33;100902.16;;;12.78;64.82
55068;BME280;40965;52.368;9.712;2022-09-03T05:59:05;100911.72;;;12.82;64.53
55068;BME280;40965;52.368;9.712;2022-09-03T06:01:35;100909.97;;;12.81;64.71
55068;BME280;40965;52.368;9.712;2022-09-03T06:04:06;100906.41;;;12.85;64.43
55068;BME280;40965;52.368;9.712;2022-09-03T06:06:38;100907.25;;;12.88;64.33
55068;BME280;40965;52.368;9.712;2022-09-03T06:09:11;100906.28;;;12.94;63.88
55068;BME280;40965;52.368;9.712;2022-09-03T06:11:40;100904.47;;;12.98;64.01
55068;BME280;40965;52.368;9.712;2022-09-03T06:14:13;100907.03;;;13.02;63.77
55068;BME280;40965;52.368;9.712;2022-09-03T06:16:42;100907.88;;;13.04;63.77
55068;BME280;40965;52.368;9.712;2022-09-03T06:19:13;100913.88;;;13.13;63.77
55068;BME280;40965;52.368;9.712;2022-09-03T06:21:47;100908.53;;;13.19;63.09
55068;BME280;40965;52.368;9.712;2022-09-03T06:24:17;100921.56;;;13.27;63.01
55068;BME280;40965;52.368;9.712;2022-09-03T06:26:47;100920.53;;;13.35;63.10
55068;BME280;40965;52.368;9.712;2022-09-03T06:29:17;100909.97;;;13.42;62.95
55068;BME280;40965;52.368;9.712;2022-09-03T06:31:44;100905.34;;;13.56;62.58
55068;BME280;40965;52.368;9.712;2022-09-03T06:34:15;100912.91;;;13.75;62.18
55068;BME280;40965;52.368;9.712;2022-09-03T06:36:43;100914.91;;;14.09;60.86
55068;BME280;40965;52.368;9.712;2022-09-03T06:39:12;100913.22;;;14.50;59.35
55068;BME280;40965;52.368;9.712;2022-09-03T06:42:00;100909.34;;;15.05;58.06
55068;BME280;40965;52.368;9.712;2022-09-03T06:44:29;100910.16;;;15.45;56.72
55068;BME280;40965;52.368;9.712;2022-09-03T06:46:59;100913.69;;;15.80;55.21
55068;BME280;40965;52.368;9.712;2022-09-03T06:49:26;100912.13;;;16.06;54.85
55068;BME280;40965;52.368;9.712;2022-09-03T06:51:57;100912.03;;;16.41;53.64
55068;BME280;40965;52.368;9.712;2022-09-03T06:54:26;100912.31;;;16.61;53.30
55068;BME280;40965;52.368;9.712;2022-09-03T06:56:54;100904.41;;;16.90;51.80
55068;BME280;40965;52.368;9.712;2022-09-03T06:59:22;100905.28;;;17.18;51.89
55068;BME280;40965;52.368;9.712;2022-09-03T07:01:50;100908.63;;;17.50;50.38
55068;BME280;40965;52.368;9.712;2022-09-03T07:04:19;100902.75;;;17.67;49.88
55068;BME280;40965;52.368;9.712;2022-09-03T07:06:48;100902.88;;;17.90;49.25
55068;BME280;40965;52.368;9.712;2022-09-03T07:09:17;100902.09;;;18.13;48.85
55068;BME280;40965;52.368;9.712;2022-09-03T07:11:44;100903.41;;;18.48;47.70
55068;BME280;40965;52.368;9.712;2022-09-03T07:14:19;100906.84;;;18.74;47.66
55068;BME280;40965;52.368;9.712;2022-09-03T07:16:48;100897.75;;;19.26;46.24
55068;BME280;40965;52.368;9.712;2022-09-03T07:19:17;100906.88;;;19.41;45.59
55068;BME280;40965;52.368;9.712;2022-09-03T07:21:45;100901.41;;;19.66;44.66
55068;BME280;40965;52.368;9.712;2022-09-03T07:24:13;100901.63;;;19.82;44.32
55068;BME280;40965;52.368;9.712;2022-09-03T07:26:41;100896.22;;;19.83;44.25
55068;BME280;40965;52.368;9.712;2022-09-03T07:29:13;100894.06;;;20.12;43.77
55068;BME280;40965;52.368;9.712;2022-09-03T07:31:45;100895.09;;;20.29;43.19
55068;BME280;40965;52.368;9.712;2022-09-03T07:34:12;100890.81;;;20.84;42.74
55068;BME280;40965;52.368;9.712;2022-09-03T07:36:48;100890.06;;;21.36;41.38
55068;BME280;40965;52.368;9.712;2022-09-03T07:39:19;100899.84;;;21.88;40.80
55068;BME280;40965;52.368;9.712;2022-09-03T07:41:47;100889.06;;;22.07;39.72
55068;BME280;40965;52.368;9.712;2022-09-03T07:44:17;100891.94;;;22.37;39.00
55068;BME280;40965;52.368;9.712;2022-09-03T07:46:48;100892.88;;;22.52;39.01
55068;BME280;40965;52.368;9.712;2022-09-03T07:49:23;100889.09;;;22.72;37.90
55068;BME280;40965;52.368;9.712;2022-09-03T07:51:59;100884.22;;;23.27;37.96
55068;BME280;40965;52.368;9.712;2022-09-03T07:54:27;100886.53;;;23.33;37.16
55068;BME280;40965;52.368;9.712;2022-09-03T07:56:56;100891.56;;;23.23;37.25
55068;BME280;40965;52.368;9.712;2022-09-03T07:59:25;100887.78;;;23.11;37.67
55068;BME280;40965;52.368;9.712;2022-09-03T08:01:53;100881.63;;;23.25;36.99
55068;BME280;40965;52.368;9.712;2022-09-03T08:04:23;100888.75;;;23.86;36.47
55068;BME280;40965;52.368;9.712;2022-09-03T08:06:56;100886.97;;;24.01;35.67
55068;BME280;40965;52.368;9.712;2022-09-03T08:09:25;100890.09;;;24.65;34.98
55068;BME280;40965;52.368;9.712;2022-09-03T08:12:04;100896.34;;;25.20;33.63
55068;BME280;40965;52.368;9.712;2022-09-03T08:14:36;100895.69;;;24.89;33.99
55068;BME280;40965;52.368;9.712;2022-09-03T08:17:03;100891.66;;;24.82;34.26
55068;BME280;40965;52.368;9.712;2022-09-03T08:19:31;100893.56;;;24.09;35.41
55068;BME280;40965;52.368;9.712;2022-09-03T08:21:59;100897.06;;;23.81;36.02
55068;BME280;40965;52.368;9.712;2022-09-03T08:24:32;100897.13;;;23.65;36.63
55068;BME280;40965;52.368;9.712;2022-09-03T08:27:00;100901.25;;;23.40;36.52
55068;BME280;40965;52.368;9.712;2022-09-03T08:29:28;100908.44;;;22.76;37.20
55068;BME280;40965;52.368;9.712;2022-09-03T08:31:56;100902.44;;;22.23;38.01
55068;BME280;40965;52.368;9.712;2022-09-03T08:34:31;100904.94;;;21.57;39.18
55068;BME280;40965;52.368;9.712;2022-09-03T08:37:00;100906.53;;;21.07;40.32
55068;BME280;40965;52.368;9.712;2022-09-03T08:39:31;100900.47;;;20.86;40.44
55068;BME280;40965;52.368;9.712;2022-09-03T08:42:28;100904.19;;;20.82;40.98
55068;BME280;40965;52.368;9.712;2022-09-03T08:45:15;100906.25;;;20.94;40.31
55068;BME280;40965;52.368;9.712;2022-09-03T08:50:27;100904.03;;;21.04;40.41
55068;BME280;40965;52.368;9.712;2022-09-03T08:53:15;100898.75;;;21.03;39.89
55068;BME280;40965;52.368;9.712;2022-09-03T08:56:00;100898.63;;;21.06;39.95
55068;BME280;40965;52.368;9.712;2022-09-03T08:58:33;100898.59;;;21.42;39.28
55068;BME280;40965;52.368;9.712;2022-09-03T09:06:40;100893.84;;;22.18;37.81
55068;BME280;40965;52.368;9.712;2022-09-03T09:12:38;100890.28;;;22.83;36.62
55068;BME280;40965;52.368;9.712;2022-09-03T09:15:47;100893.50;;;22.89;36.28
55068;BME280;40965;52.368;9.712;2022-09-03T09:18:45;100885.84;;;23.13;35.82
55068;BME280;40965;52.368;9.712;2022-09-03T09:21:46;100892.31;;;23.41;35.53
55068;BME280;40965;52.368;9.712;2022-09-03T09:24:34;100882.16;;;23.46;35.37
55068;BME280;40965;52.368;9.712;2022-09-03T09:27:31;100885.41;;;23.37;35.09
55068;BME280;40965;52.368;9.712;2022-09-03T09:30:04;100872.75;;;23.55;35.01
55068;BME280;40965;52.368;9.712;2022-09-03T09:32:31;100871.59;;;23.90;34.69
55068;BME280;40965;52.368;9.712;2022-09-03T09:35:07;100871.78;;;24.01;33.46
55068;BME280;40965;52.368;9.712;2022-09-03T09:37:52;100870.94;;;24.15;32.88
55068;BME280;40965;52.368;9.712;2022-09-03T09:40:26;100870.63;;;24.49;32.55
55068;BME280;40965;52.368;9.712;2022-09-03T09:43:14;100856.56;;;25.54;30.80
55068;BME280;40965;52.368;9.712;2022-09-03T09:45:52;100857.19;;;25.84;30.42
55068;BME280;40965;52.368;9.712;2022-09-03T09:48:30;100858.69;;;26.77;28.23
55068;BME280;40965;52.368;9.712;2022-09-03T09:51:08;100854.16;;;27.37;27.60
55068;BME280;40965;52.368;9.712;2022-09-03T09:53:45;100852.88;;;27.18;27.69
55068;BME280;40965;52.368;9.712;2022-09-03T09:56:24;100845.66;;;27.43;27.55
55068;BME280;40965;52.368;9.712;2022-09-03T09:59:34;100835.41;;;28.39;26.26
55068;BME280;40965;52.368;9.712;2022-09-03T10:02:19;100837.22;;;29.90;25.08
55068;BME280;40965;52.368;9.712;2022-09-03T10:08:17;100829.47;;;29.85;24.17
55068;BME280;40965;52.368;9.712;2022-09-03T10:10:53;100833.63;;;30.20;23.47
55068;BME280;40965;52.368;9.712;2022-09-03T10:13:41;100842.84;;;30.58;22.75
55068;BME280;40965;52.368;9.712;2022-09-03T10:16:34;100834.16;;;30.04;22.97
55068;BME280;40965;52.368;9.712;2022-09-03T10:19:12;100832.97;;;29.97;22.80
55068;BME280;40965;52.368;9.712;2022-09-03T10:22:15;100833.38;;;30.43;22.66
55068;BME280;40965;52.368;9.712;2022-09-03T10:25:01;100813.13;;;31.17;21.96
55068;BME280;40965;52.368;9.712;2022-09-03T10:27:32;100815.63;;;31.67;21.73
55068;BME280;40965;52.368;9.712;2022-09-03T10:30:00;100826.84;;;31.06;22.48
55068;BME280;40965;52.368;9.712;2022-09-03T10:35:38;100820.69;;;32.64;20.82
55068;BME280;40965;52.368;9.712;2022-09-03T10:38:29;100818.28;;;32.97;20.67
55068;BME280;40965;52.368;9.712;2022-09-03T10:44:18;100807.69;;;33.04;20.34
55068;BME280;40965;52.368;9.712;2022-09-03T10:53:09;100799.91;;;33.27;19.74
55068;BME280;40965;52.368;9.712;2022-09-03T10:55:55;100813.25;;;32.84;20.05
55068;BME280;40965;52.368;9.712;2022-09-03T11:01:56;100796.72;;;34.35;18.88
55068;BME280;40965;52.368;9.712;2022-09-03T11:05:01;100810.34;;;33.40;19.71
55068;BME280;40965;52.368;9.712;2022-09-03T11:07:42;100800.81;;;33.36;19.43
55068;BME280;40965;52.368;9.712;2022-09-03T11:10:31;100801.81;;;33.61;19.90
55068;BME280;40965;52.368;9.712;2022-09-03T11:13:08;100794.06;;;34.01;19.25
55068;BME280;40965;52.368;9.712;2022-09-03T11:16:14;100797.94;;;34.49;18.91
55068;BME280;40965;52.368;9.712;2022-09-03T11:19:05;100796.22;;;33.89;19.00
55068;BME280;40965;52.368;9.712;2022-09-03T11:21:40;100805.56;;;33.15;19.54
55068;BME280;40965;52.368;9.712;2022-09-03T11:24:16;100789.06;;;33.09;19.93
55068;BME280;40965;52.368;9.712;2022-09-03T11:27:32;100792.22;;;33.75;18.97
55068;BME280;40965;52.368;9.712;2022-09-03T11:30:24;100789.56;;;33.83;19.15
55068;BME280;40965;52.368;9.712;2022-09-03T11:33:20;100781.56;;;34.24;18.95
55068;BME280;40965;52.368;9.712;2022-09-03T11:35:57;100785.22;;;34.83;18.75
55068;BME280;40965;52.368;9.712;2022-09-03T11:38:31;100784.53;;;35.38;17.20
55068;BME280;40965;52.368;9.712;2022-09-03T11:41:14;100776.19;;;34.49;18.12
55068;BME280;40965;52.368;9.712;2022-09-03T11:44:21;100794.16;;;33.91;18.88
55068;BME280;40965;52.368;9.712;2022-09-03T11:46:56;100768.31;;;34.29;18.50
55068;BME280;40965;52.368;9.712;2022-09-03T11:49:31;100773.50;;;33.37;19.52
55068;BME280;40965;52.368;9.712;2022-09-03T11:52:10;100768.56;;;32.70;19.59
55068;BME280;40965;52.368;9.712;2022-09-03T11:54:45;100766.06;;;33.13;19.48
55068;BME280;40965;52.368;9.712;2022-09-03T11:57:40;100769.84;;;34.24;18.80
55068;BME280;40965;52.368;9.712;2022-09-03T12:00:17;100771.63;;;35.16;18.08
55068;BME280;40965;52.368;9.712;2022-09-03T12:14:16;100779.09;;;34.56;17.82
55068;BME280;40965;52.368;9.712;2022-09-03T12:21:09;100768.72;;;35.90;17.19
55068;BME280;40965;52.368;9.712;2022-09-03T12:23:41;100765.47;;;35.38;17.49
55068;BME280;40965;52.368;9.712;2022-09-03T12:26:25;100775.91;;;34.93;17.74
55068;BME280;40965;52.368;9.712;2022-09-03T12:28:58;100769.22;;;34.38;17.98
55068;BME280;40965;52.368;9.712;2022-09-03T12:31:43;100761.78;;;34.82;17.80
55068;BME280;40965;52.368;9.712;2022-09-03T12:34:21;100763.44;;;35.32;17.33
55068;BME280;40965;52.368;9.712;2022-09-03T12:37:19;100766.22;;;34.91;17.39
55068;BME280;40965;52.368;9.712;2022-09-03T12:39:53;100759.94;;;34.90;17.44
55068;BME280;40965;52.368;9.712;2022-09-03T12:42:35;100763.81;;;34.63;17.45
55068;BME280;40965;52.368;9.712;2022-09-03T12:45:25;100768.59;;;34.86;17.33
55068;BME280;40965;52.368;9.712;2022-09-03T12:48:12;100747.19;;;35.64;16.90
55068;BME280;40965;52.368;9.712;2022-09-03T12:50:44;100744.25;;;36.45;16.57
55068;BME280;40965;52.368;9.712;2022-09-03T12:53:23;100745.16;;;36.98;15.76
55068;BME280;40965;52.368;9.712;2022-09-03T12:55:58;100748.19;;;36.80;16.23
55068;BME280;40965;52.368;9.712;2022-09-03T12:58:56;100750.44;;;36.30;16.16
55068;BME280;40965;52.368;9.712;2022-09-03T13:02:02;100741.56;;;35.65;16.63
55068;BME280;40965;52.368;9.712;2022-09-03T13:04:46;100742.53;;;35.81;16.12
55068;BME280;40965;52.368;9.712;2022-09-03T13:07:33;100736.97;;;36.05;16.34
55068;BME280;40965;52.368;9.712;2022-09-03T13:10:28;100734.84;;;36.47;16.26
55068;BME280;40965;52.368;9.712;2022-09-03T13:16:51;100723.28;;;35.82;16.50
55068;BME280;40965;52.368;9.712;2022-09-03T13:19:42;100731.94;;;35.94;16.40
55068;BME280;40965;52.368;9.712;2022-09-03T13:22:56;100723.81;;;35.38;16.51
55068;BME280;40965;52.368;9.712;2022-09-03T13:26:12;100720.19;;;36.48;16.33
55068;BME280;40965;52.368;9.712;2022-09-03T13:29:42;100727.88;;;37.06;15.65
55068;BME280;40965;52.368;9.712;2022-09-03T13:35:48;100724.56;;;36.96;15.32
55068;BME280;40965;52.368;9.712;2022-09-03T13:38:51;100722.84;;;36.95;15.49
55068;BME280;40965;52.368;9.712;2022-09-03T13:41:42;100735.16;;;36.52;15.75
55068;BME280;40965;52.368;9.712;2022-09-03T13:44:34;100735.31;;;36.28;15.77
55068;BME280;40965;52.368;9.712;2022-09-03T13:47:34;100731.81;;;34.24;17.27
55068;BME280;40965;52.368;9.712;2022-09-03T13:50:44;100730.69;;;34.92;16.68
55068;BME280;40965;52.368;9.712;2022-09-03T13:54:12;100722.25;;;35.52;16.50
55068;BME280;40965;52.368;9.712;2022-09-03T13:58:07;100731.16;;;35.21;16.70
55068;BME280;40965;52.368;9.712;2022-09-03T14:18:28;100716.50;;;36.79;15.66
55068;BME280;40965;52.368;9.712;2022-09-03T14:21:14;100718.38;;;37.02;14.98
55068;BME280;40965;52.368;9.712;2022-09-03T14:24:07;100723.34;;;36.37;15.58
55068;BME280;40965;52.368;9.712;2022-09-03T14:26:59;100724.78;;;35.93;15.97
55068;BME280;40965;52.368;9.712;2022-09-03T14:29:31;100725.34;;;35.24;16.43
55068;BME280;40965;52.368;9.712;2022-09-03T14:32:23;100726.94;;;34.69;17.06
55068;BME280;40965;52.368;9.712;2022-09-03T14:35:22;100726.84;;;35.43;16.42
55068;BME280;40965;52.368;9.712;2022-09-03T14:47:05;100730.66;;;34.43;17.24
55068;BME280;40965;52.368;9.712;2022-09-03T14:56:00;100716.22;;;34.34;17.42
55068;BME280;40965;52.368;9.712;2022-09-03T14:59:09;100722.16;;;34.62;16.77
55068;BME280;40965;52.368;9.712;2022-09-03T15:02:02;100713.25;;;35.26;16.48
55068;BME280;40965;52.368;9.712;2022-09-03T15:05:08;100710.34;;;35.44;16.38
55068;BME280;40965;52.368;9.712;2022-09-03T15:13:54;100717.47;;;32.21;19.00
55068;BME280;40965;52.368;9.712;2022-09-03T15:16:48;100719.22;;;31.57;19.33
55068;BME280;40965;52.368;9.712;2022-09-03T15:19:42;100715.16;;;32.80;18.30
55068;BME280;40965;52.368;9.712;2022-09-03T15:22:56;100712.91;;;33.55;17.97
55068;BME280;40965;52.368;9.712;2022-09-03T15:26:14;100709.53;;;33.00;18.13
55068;BME280;40965;52.368;9.712;2022-09-03T15:29:31;100721.16;;;32.20;18.85
55068;BME280;40965;52.368;9.712;2022-09-03T15:35:09;100719.16;;;31.29;19.64
55068;BME280;40965;52.368;9.712;2022-09-03T15:37:46;100719.31;;;31.37;19.63
55068;BME280;40965;52.368;9.712;2022-09-03T15:40:35;100720.56;;;31.43;19.80
55068;BME280;40965;52.368;9.712;2022-09-03T15:43:26;100715.56;;;31.48;19.87
55068;BME280;40965;52.368;9.712;2022-09-03T15:46:08;100723.31;;;31.61;19.32
55068;BME280;40965;52.368;9.712;2022-09-03T15:48:58;100726.31;;;31.67;19.41
55068;BME280;40965;52.368;9.712;2022-09-03T15:51:45;100713.19;;;31.35;19.83
55068;BME280;40965;52.368;9.712;2022-09-03T15:54:28;100715.69;;;30.79;20.23
55068;BME280;40965;52.368;9.712;2022-09-03T15:57:06;100723.41;;;30.64;20.34
55068;BME280;40965;52.368;9.712;2022-09-03T15:59:40;100737.00;;;30.33;20.51
55068;BME280;40965;52.368;9.712;2022-09-03T16:02:19;100719.63;;;29.97;20.73
55068;BME280;40965;52.368;9.712;2022-09-03T16:05:15;100728.94;;;29.83;21.30